A.b. York — WDJ2304 — position and weather

sailwx.info

Track history (hours):
 
Tides and Currents Weather Stations Pressure Air Temp Water Temp Dewpoint Dewpoint Depression Visibility Wind Speed Wind Dir Waves Ship Positions

A.b. York

Owner: Florida Marine, LLC, Mandeville, LA. More information available from US FCC via Universal Licensing System and Coast Guard Vessel Documentation Center.

Last reported at 2017-Sep-02 11:17 UTC. Time now 2017-Sep-21 17:50 UTC.
Position N 38°58' W 090°33'.
Warning: this ship's position is 19 days out of date.

Length 37 m; draft 3 m.

Type: Other ship. MMSI: 367757130.

Date/timePositionNaut miles runAvg speedWind from/ knotsBaromVisibWave heightAir tempDewpointWater temp
2017-Sep-02 11:17N 38°58' W 090°33'2 5.3
2017-Sep-02 11:00N 38°57' W 090°32'2 5.1
2017-Sep-02 10:30N 38°58' W 090°29'3 5.1
2017-Sep-02 10:00N 38°58' W 090°25'2 4.7
2017-Sep-02 09:30N 38°57' W 090°22'2 3.8
2017-Sep-02 09:00N 38°56' W 090°20'2 4.0
2017-Sep-02 08:30N 38°55' W 090°18'  
2017-Aug-26 04:01N 32°47' W 091°10'1 5.0
2017-Aug-26 03:53N 32°47' W 091°10'2 4.6
2017-Aug-26 03:30N 32°45' W 091°09'4 1.9
2017-Aug-26 01:14N 32°44' W 091°04'4 2.5
2017-Aug-25 23:26N 32°40' W 091°07'2 4.8
2017-Aug-25 22:56N 32°39' W 091°09'2 4.5
2017-Aug-25 22:30N 32°37' W 091°09'2 4.7
2017-Aug-25 22:00N 32°35' W 091°07'2 4.1
2017-Aug-25 21:26N 32°33' W 091°06'2 4.7
2017-Aug-25 21:00N 32°31' W 091°06'2 4.9
2017-Aug-25 20:30N 32°29' W 091°07'2 5.0
2017-Aug-25 20:00N 32°27' W 091°05'2 4.8
2017-Aug-25 19:30N 32°26' W 091°02'2 4.4
2017-Aug-25 19:00N 32°25' W 090°60'2 3.4
2017-Aug-25 18:30N 32°23' W 090°60'2 4.3
2017-Aug-25 18:00N 32°21' W 090°59'1 2.1
2017-Aug-25 17:30N 32°21' W 090°58'0 0.6
2017-Aug-25 17:00N 32°21' W 090°58'2 4.1
2017-Aug-25 16:30N 32°21' W 090°55'2 3.8
2017-Aug-25 16:00N 32°19' W 090°54'3 5.1
2017-Aug-25 15:30N 32°17' W 090°56'2 4.7
2017-Aug-25 15:00N 32°16' W 090°58'5 5.1
2017-Aug-25 14:00N 32°11' W 090°60'3 5.2
2017-Aug-25 13:30N 32°08' W 091°00'2 4.5
2017-Aug-25 13:00N 32°07' W 091°03'3 5.1
2017-Aug-25 12:28N 32°08' W 091°06'6 2.5
2017-Aug-25 10:12N 32°03' W 091°04'1 5.6
2017-Aug-25 09:58N 32°01' W 091°04'22 3.9
2017-Aug-25 04:19N 31°45' W 091°22'2 4.9
2017-Aug-25 03:56N 31°44' W 091°23'  
Track history (hours):
 
Tides and Currents Weather Stations Pressure Air Temp Water Temp Dewpoint Dewpoint Depression Visibility Wind Speed Wind Dir Waves Ship Positions

A.b. York

Owner: Florida Marine, LLC, Mandeville, LA. More information available from US FCC via Universal Licensing System and Coast Guard Vessel Documentation Center.

Last reported at 2017-Sep-02 11:17 UTC. Time now 2017-Sep-21 17:50 UTC.
Position N 38°58' W 090°33'.
Warning: this ship's position is 19 days out of date.

Length 37 m; draft 3 m.

Type: Other ship. MMSI: 367757130.

Date/timePositionNaut miles runAvg speedWind from/ knotsBaromVisibWave heightAir tempDewpointWater temp
2017-Sep-02 11:17N 38°58' W 090°33'2 5.3
2017-Sep-02 11:00N 38°57' W 090°32'2 5.1
2017-Sep-02 10:30N 38°58' W 090°29'3 5.1
2017-Sep-02 10:00N 38°58' W 090°25'2 4.7
2017-Sep-02 09:30N 38°57' W 090°22'2 3.8
2017-Sep-02 09:00N 38°56' W 090°20'2 4.0
2017-Sep-02 08:30N 38°55' W 090°18'  
2017-Aug-26 04:01N 32°47' W 091°10'1 5.0
2017-Aug-26 03:53N 32°47' W 091°10'2 4.6
2017-Aug-26 03:30N 32°45' W 091°09'4 1.9
2017-Aug-26 01:14N 32°44' W 091°04'4 2.5
2017-Aug-25 23:26N 32°40' W 091°07'2 4.8
2017-Aug-25 22:56N 32°39' W 091°09'2 4.5
2017-Aug-25 22:30N 32°37' W 091°09'2 4.7
2017-Aug-25 22:00N 32°35' W 091°07'2 4.1
2017-Aug-25 21:26N 32°33' W 091°06'2 4.7
2017-Aug-25 21:00N 32°31' W 091°06'2 4.9
2017-Aug-25 20:30N 32°29' W 091°07'2 5.0
2017-Aug-25 20:00N 32°27' W 091°05'2 4.8
2017-Aug-25 19:30N 32°26' W 091°02'2 4.4
2017-Aug-25 19:00N 32°25' W 090°60'2 3.4
2017-Aug-25 18:30N 32°23' W 090°60'2 4.3
2017-Aug-25 18:00N 32°21' W 090°59'1 2.1
2017-Aug-25 17:30N 32°21' W 090°58'0 0.6
2017-Aug-25 17:00N 32°21' W 090°58'2 4.1
2017-Aug-25 16:30N 32°21' W 090°55'2 3.8
2017-Aug-25 16:00N 32°19' W 090°54'3 5.1
2017-Aug-25 15:30N 32°17' W 090°56'2 4.7
2017-Aug-25 15:00N 32°16' W 090°58'5 5.1
2017-Aug-25 14:00N 32°11' W 090°60'3 5.2
2017-Aug-25 13:30N 32°08' W 091°00'2 4.5
2017-Aug-25 13:00N 32°07' W 091°03'3 5.1
2017-Aug-25 12:28N 32°08' W 091°06'6 2.5
2017-Aug-25 10:12N 32°03' W 091°04'1 5.6
2017-Aug-25 09:58N 32°01' W 091°04'22 3.9
2017-Aug-25 04:19N 31°45' W 091°22'2 4.9
2017-Aug-25 03:56N 31°44' W 091°23'  

Dump ship's entire track history